• Join FlightAware (Why Join?)
  • Login
  • US Flag 
11:42AM EDT


 

Airport Tracker/Info


-or-


 

Live Flight TrackerFlight Track Log ✈ SWA3937 ✈ 14-Apr-2013 ✈ KPHX - KLIT

Flight Track Log - Related Links

Times and Time Zones

All times are in EDT time to prevent confusion due to time zone crossing. See the SWA3937 flight status page for this flight to view local times or setup timezone preferences in your user account.

Time Position Orientation Groundspeed Altitude Reporting Facility
EDT Latitude Longitude Course Direction KTS MPH feet Rate Location/Type
02:30PM 33.4333 -112.0333 257° West 188 216 1,900  Level Phoenix TRACON
02:31PM 33.4167 -112.1167 257° West 222 255 4,500 2,280 Climbing Phoenix TRACON
02:32PM 33.3956 -112.1458 229° Southwest 220 253 6,200 2,940 Climbing Albuquerque Center
02:33PM 33.3594 -112.0956 131° Southeast 246 283 9,600 2,580 Climbing Albuquerque Center
02:34PM 33.3714 -111.9819 83° East 314 361 11,600 2,340 Climbing Albuquerque Center
02:35PM 33.3964 -111.8644 76° East 365 420 14,400 2,700 Climbing Albuquerque Center
02:36PM 33.4242 -111.7400 75° East 388 447 17,200 2,700 Climbing Albuquerque Center
02:37PM 33.4525 -111.6100 75° East 405 466 20,100 2,580 Climbing Albuquerque Center
02:38PM 33.4814 -111.4758 75° East 419 482 22,500 2,100 Climbing Albuquerque Center
02:39PM 33.5083 -111.3336 77° East 437 503 24,500 2,100 Climbing Albuquerque Center
02:40PM 33.5275 -111.1514 83° East 461 531 26,900 1,980 Climbing Albuquerque Center
02:41PM 33.5450 -110.9944 82° East 476 548 28,700 1,860 Climbing Albuquerque Center
02:42PM 33.5742 -110.8389 77° East 480 552 30,800 1,980 Climbing Albuquerque Center
02:43PM 33.6208 -110.6914 69° East 484 557 32,800 1,020 Climbing Albuquerque Center
02:44PM 33.6533 -110.5367 76° East 483 556 33,000 60 Climbing Albuquerque Center
02:45PM 33.6900 -110.3503 77° East 486 559 33,000  Level Albuquerque Center
02:46PM 33.7236 -110.1917 76° East 491 565 33,000  Level Albuquerque Center
02:47PM 33.7583 -110.0319 75° East 494 568 33,000  Level Albuquerque Center
02:48PM 33.7903 -109.8700 77° East 500 575 33,000  Level Albuquerque Center
02:49PM 33.8236 -109.7089 76° East 500 575 33,000  Level Albuquerque Center
02:50PM 33.8558 -109.5472 76° East 499 574 33,000  Level Albuquerque Center
02:51PM 33.8953 -109.3536 76° East 500 575 33,000  Level Albuquerque Center
02:52PM 33.9272 -109.1939 76° East 496 571 33,000  Level Albuquerque Center
02:53PM 33.9592 -109.0303 77° East 500 575 33,000  Level Albuquerque Center
02:54PM 33.9914 -108.8686 76° East 500 575 33,000  Level Albuquerque Center
02:55PM 34.0236 -108.7053 77° East 502 578 33,000  Level Albuquerque Center
02:56PM 34.0542 -108.5417 77° East 503 579 33,000  Level Albuquerque Center
02:57PM 34.0925 -108.3450 77° East 504 580 33,000  Level Albuquerque Center
02:59PM 34.1228 -108.1831 77° East 501 577 33,000  Level Albuquerque Center
03:00PM 34.1492 -108.0328 78° East 502 578 33,000  Level Albuquerque Center
03:01PM 34.1803 -107.8686 77° East 501 577 33,000  Level Albuquerque Center
03:02PM 34.2100 -107.6694 80° East 502 578 33,000  Level Albuquerque Center
03:03PM 34.2361 -107.5028 79° East 503 579 33,000  Level Albuquerque Center
03:04PM 34.2619 -107.3358 79° East 505 581 33,000  Level Albuquerque Center
03:05PM 34.2886 -107.1656 79° East 510 587 33,000  Level Albuquerque Center
03:06PM 34.3169 -106.9856 79° East 503 579 33,000  Level Albuquerque Center
03:07PM 34.3428 -106.8169 79° East 509 586 33,000  Level Albuquerque Center
03:08PM 34.3672 -106.6461 80° East 517 595 33,000  Level Albuquerque Center
03:09PM 34.3908 -106.4775 80° East 514 592 33,000  Level Albuquerque Center
03:10PM 34.4158 -106.3106 80° East 511 588 33,000  Level Albuquerque Center
03:11PM 34.4414 -106.1306 80° East 504 580 33,000  Level Albuquerque Center
03:12PM 34.4661 -105.9594 80° East 508 585 33,000  Level Albuquerque Center
03:13PM 34.4947 -105.7608 80° East 510 587 33,000  Level Albuquerque Center
03:14PM 34.5181 -105.5906 81° East 509 586 33,000  Level Albuquerque Center
03:15PM 34.5406 -105.4211 81° East 507 583 33,000  Level Albuquerque Center
03:16PM 34.5650 -105.2519 80° East 506 582 33,000  Level Albuquerque Center
03:17PM 34.5869 -105.0831 81° East 504 580 33,000  Level Albuquerque Center
03:18PM 34.6097 -104.9139 81° East 505 581 33,000  Level Albuquerque Center
03:19PM 34.6331 -104.7447 80° East 505 581 33,000  Level Albuquerque Center
03:20PM 34.6564 -104.5753 80° East 506 582 33,000  Level Albuquerque Center
03:21PM 34.6825 -104.3769 81° East 509 586 33,000  Level Albuquerque Center
03:22PM 34.7044 -104.2053 81° East 512 589 33,000  Level Albuquerque Center
03:23PM 34.7258 -104.0317 81° East 516 594 33,000  Level Albuquerque Center
03:24PM 34.7478 -103.8583 81° East 518 596 33,000  Level Albuquerque Center
03:25PM 34.7703 -103.6842 81° East 520 598 33,000  Level Albuquerque Center
03:26PM 34.7903 -103.5103 82° East 518 596 33,000 240 Level Albuquerque Center
03:27PM 34.8158 -103.3081 81° East 517 595 33,600 1,140 Climbing Albuquerque Center
03:28PM 34.8372 -103.1328 81° East 519 597 35,400 1,560 Climbing Albuquerque Center
03:29PM 34.8583 -102.9603 81° East 515 593 36,900 1,380 Climbing Albuquerque Center
03:30PM 34.8764 -102.7872 83° East 512 589 38,300 1,020 Climbing Albuquerque Center
03:31PM 34.8958 -102.6100 82° East 506 582 39,000 300 Climbing Albuquerque Center
03:33PM 34.9153 -102.4425 82° East 503 579 39,000  Level Albuquerque Center
03:34PM 34.9339 -102.2767 82° East 498 573 39,000  Level Albuquerque Center
03:35PM 34.9528 -102.1106 82° East 498 573 39,000  Level Albuquerque Center
03:36PM 34.9694 -101.9464 83° East 495 570 39,000  Level Albuquerque Center
03:37PM 34.9911 -101.7497 82° East 493 567 39,000  Level Albuquerque Center
03:38PM 35.0097 -101.5908 82° East 493 567 39,000  Level Albuquerque Center
03:39PM 35.0258 -101.4244 83° East 494 568 39,000  Level Albuquerque Center
03:40PM 35.0417 -101.2592 83° East 495 570 39,000  Level Albuquerque Center
03:41PM 35.0589 -101.0928 83° East 496 571 39,000  Level Albuquerque Center
03:42PM 35.0794 -100.8939 83° East 496 571 39,000  Level Albuquerque Center
03:43PM 35.0956 -100.7272 83° East 496 571 39,000  Level Albuquerque Center
03:44PM 35.1119 -100.5583 83° East 501 577 39,000  Level Albuquerque Center
03:45PM 35.1283 -100.3897 83° East 502 578 39,000  Level Albuquerque Center
03:46PM 35.1444 -100.2139 84° East 502 578 39,000  Level Albuquerque Center
03:47PM 35.1611 -100.0428 83° East 506 582 39,000  Level Albuquerque Center
03:48PM 35.1758 -99.8733 84° East 504 580 39,000  Level Albuquerque Center
03:49PM 35.1911 -99.7028 84° East 505 581 39,000  Level Albuquerque Center
03:50PM 35.2089 -99.4997 84° East 504 580 39,000  Level Albuquerque Center
03:51PM 35.2236 -99.3331 84° East 498 573 39,000  Level Albuquerque Center
03:51PM 35.2272 -99.2892 84° East 501 577 39,000  Level Fort Worth Center
03:52PM 35.2403 -99.1217 85° East 501 577 39,000  Level Fort Worth Center
03:53PM 35.2547 -98.9542 84° East 501 577 39,000  Level Fort Worth Center
03:54PM 35.2672 -98.7867 85° East 501 577 39,000  Level Fort Worth Center
03:55PM 35.2814 -98.6217 84° East 501 577 39,000  Level Fort Worth Center
03:56PM 35.2956 -98.4589 84° East 494 568 39,000  Level Fort Worth Center
03:57PM 35.3072 -98.2911 85° East 489 563 39,000  Level Fort Worth Center
03:58PM 35.3208 -98.1233 84° East 489 563 39,000  Level Fort Worth Center
03:59PM 35.3342 -97.9581 84° East 489 563 39,000  Level Fort Worth Center
04:00PM 35.3431 -97.7928 86° East 489 563 39,000  Level Fort Worth Center
04:01PM 35.3539 -97.6247 85° East 489 563 39,000  Level Fort Worth Center
04:02PM 35.3436 -97.4492 94° East 496 571 39,000  Level Fort Worth Center
04:03PM 35.3228 -97.2786 98° East 506 582 39,000  Level Fort Worth Center
04:04PM 35.3017 -97.0881 98° East 514 592 39,000  Level Fort Worth Center
04:05PM 35.2844 -96.9203 97° East 508 585 39,000  Level Fort Worth Center
04:06PM 35.2647 -96.7525 98° East 503 579 39,000  Level Fort Worth Center
04:07PM 35.2472 -96.5875 97° East 503 579 39,000  Level Fort Worth Center
04:08PM 35.2292 -96.4197 97° East 503 579 39,000  Level Fort Worth Center
04:09PM 35.2111 -96.2547 98° East 503 579 39,000  Level Fort Worth Center
04:10PM 35.1908 -96.0900 99° East 503 579 39,000  Level Fort Worth Center
04:11PM 35.1722 -95.9253 98° East 498 573 39,000  Level Fort Worth Center
04:12PM 35.1556 -95.7606 97° East 498 573 39,000  Level Fort Worth Center
04:13PM 35.1344 -95.5983 99° East 492 566 39,000  Level Fort Worth Center
04:16PM 35.0889 -95.2419 99° East 486 559 39,000  Level Memphis Center
04:17PM 35.0683 -95.0786 99° East 486 559 39,000  Level Memphis Center
04:18PM 35.0472 -94.9150 99° East 486 559 39,000 -180 Level Memphis Center
04:19PM 35.0239 -94.7489 100° East 486 559 38,700 -1,260 Descending Memphis Center
04:20PM 34.9986 -94.5728 100° East 491 565 36,500 -2,520 Descending Memphis Center
04:21PM 34.9792 -94.4044 98° East 491 565 33,700 -2,940 Descending Memphis Center
04:22PM 34.9556 -94.2311 99° East 498 573 30,700 -2,700 Descending Memphis Center
04:23PM 34.9358 -94.0581 98° East 509 586 28,300 -2,580 Descending Memphis Center
04:24PM 34.9156 -93.8950 99° East 504 580 25,600 -2,760 Descending Memphis Center
04:25PM 34.9075 -93.7375 94° East 484 557 22,800 -2,580 Descending Memphis Center
04:26PM 34.9281 -93.5839 81° East 463 533 20,500 -2,280 Descending Memphis Center
04:27PM 34.9547 -93.4406 77° East 444 511 18,300 -2,220 Descending Memphis Center
04:28PM 34.9789 -93.2994 78° East 431 496 16,100 -1,680 Descending Memphis Center
04:29PM 35.0008 -93.1711 78° East 414 476 15,000 -1,380 Descending Memphis Center
04:30PM 35.0283 -93.0528 74° East 384 442 13,400 -1,740 Descending Memphis Center
04:30PM 35.0378 -92.9997 78° East 364 419 12,500 -1,800 Descending Memphis Center
04:31PM 35.0517 -92.9342 75° East 371 427 11,600 -1,500 Descending Memphis Center
04:31PM 35.0300 -92.8753 114° Southeast 333 383 10,900 -900 Descending Memphis Center
04:32PM 35.0161 -92.8342 112° Southeast 321 369 10,700 -1,020 Descending Memphis Center
04:32PM 34.9858 -92.7828 126° Southeast 325 374 9,900 -1,200 Descending Memphis Center
04:33PM 34.9658 -92.7392 119° Southeast 312 359 9,500 -900 Descending Memphis Center
04:33PM 34.9336 -92.6825 125° Southeast 306 352 8,900 -840 Descending Memphis Center
04:34PM 34.9236 -92.6517 112° Southeast 312 359 8,700 -1,020 Descending Memphis Center
04:34PM 34.9019 -92.5878 112° Southeast 289 333 7,900 -1,200 Descending Memphis Center
04:35PM 34.8983 -92.5600 99° East 300 345 7,500 -1,620 Descending Memphis Center
04:35PM 34.8911 -92.4914 97° East 299 344 6,300 -1,440 Descending Memphis Center
04:36PM 34.8875 -92.4608 98° East 291 335 6,100 -1,140 Descending Memphis Center
04:36PM 34.8800 -92.4000 99° East 287 330 5,300 -1,200 Descending Memphis Center
04:37PM 34.8786 -92.3694 93° East 285 328 4,900 -1,200 Descending Memphis Center
04:37PM 34.8692 -92.3111 101° East 269 310 4,100 -1,020 Descending Memphis Center
04:38PM 34.8675 -92.2756 93° East 274 315 3,900 -1,140 Descending Memphis Center
04:38PM 34.8600 -92.2172 99° East 265 305 3,000 -960 Descending Memphis Center
04:39PM 34.8564 -92.1894 99° East 269 310 3,000 -360 Level Memphis Center
04:39PM 34.8294 -92.1608 139° Southeast 234 269 2,700 -420 Descending Memphis Center
04:40PM 34.8133 -92.1353 128° Southeast 225 259 2,600 -480 Descending Memphis Center
04:40PM 34.7883 -92.1347 179° South 179 206 2,300 -720 Descending Memphis Center
04:41PM 34.7775 -92.1472 223° Southwest 125 144 1,900 -1,200 Descending Memphis Center
04:41PM 34.7586 -92.1722 227° Southwest 132 152 1,100 -840 Descending Memphis Center
04:42PM 34.7461 -92.1567 134° Southeast 125 144 1,100 -900 Level Memphis Center
04:42PM 34.7331 -92.2019 251° West 136 157 300 -1,920 Descending Memphis Center
04:47PM 34.7167 -92.2167 321° Northwest  Level FlightAware Approximate
04:54PM 34.7294 -92.2248 321° Northwest  Level Estimated
04:55PM 34.7294 -92.2248 321° Northwest  Level Estimated
04:56PM 34.7294 -92.2248 321° Northwest  Level Estimated
04:57PM 34.7294 -92.2248 321° Northwest  Level Estimated
04:58PM 34.7294 -92.2248 321° Northwest  Level Estimated